createdAt,value
2019-05-01T00:01:01.929Z,66.67
2019-05-01T00:03:41.164Z,62.43
2019-05-01T00:06:11.989Z,61.33
2019-05-01T00:08:41.003Z,60.58
2019-05-01T00:11:10.176Z,61.13
2019-05-01T00:13:40.334Z,60.10
2019-05-01T00:16:09.184Z,62.10
2019-05-01T00:18:43.609Z,55.57
2019-05-01T00:21:12.408Z,63.90
2019-05-01T00:23:41.115Z,67.12
2019-05-01T00:26:10.045Z,61.58
2019-05-01T00:28:39.116Z,65.40
2019-05-01T00:31:08.912Z,67.50
2019-05-01T00:33:39.625Z,61.40
2019-05-01T00:36:12.362Z,62.53
2019-05-01T00:38:41.146Z,62.55
2019-05-01T00:41:11.920Z,59.20
2019-05-01T00:43:40.640Z,63.47
2019-05-01T00:46:16.286Z,57.83
2019-05-01T00:48:44.974Z,64.00
2019-05-01T00:51:13.832Z,59.27
2019-05-01T00:53:42.680Z,55.33
2019-05-01T00:56:18.827Z,52.03
2019-05-01T00:58:51.689Z,55.12
2019-05-01T01:01:30.871Z,53.87
2019-05-01T01:03:59.552Z,51.15
2019-05-01T01:06:28.247Z,53.45
2019-05-01T01:09:00.458Z,54.90
2019-05-01T01:11:29.217Z,52.83
2019-05-01T01:13:59.005Z,48.95
2019-05-01T01:16:27.745Z,49.58
2019-05-01T01:18:56.656Z,50.85
2019-05-01T01:21:25.365Z,49.53
2019-05-01T01:23:54.219Z,51.10
2019-05-01T01:26:24.013Z,51.02
2019-05-01T01:28:53.352Z,50.78
2019-05-01T01:31:41.701Z,53.92
2019-05-01T01:34:10.809Z,49.13
2019-05-01T01:36:39.528Z,48.60
2019-05-01T01:39:09.086Z,47.10
2019-05-01T01:41:37.832Z,52.53
2019-05-01T01:44:11.485Z,52.10
2019-05-01T01:46:44.960Z,52.15
2019-05-01T01:49:15.060Z,55.35
2019-05-01T01:51:47.216Z,51.33
2019-05-01T01:54:16.401Z,54.80
2019-05-01T01:56:45.167Z,56.23
2019-05-01T01:59:14.306Z,52.33
2019-05-01T02:02:02.722Z,53.30
2019-05-01T02:04:52.377Z,59.80
2019-05-01T02:07:21.251Z,55.65
2019-05-01T02:09:50.033Z,57.93
2019-05-01T02:12:19.595Z,60.10
2019-05-01T02:14:48.376Z,55.25
2019-05-01T02:17:17.066Z,64.37
2019-05-01T02:19:45.813Z,56.97
2019-05-01T02:22:14.570Z,65.03
2019-05-01T02:24:43.512Z,65.47
2019-05-01T02:27:20.673Z,68.67
2019-05-01T02:29:54.771Z,63.37
2019-05-01T02:32:27.756Z,72.37
2019-05-01T02:34:58.178Z,67.40
2019-05-01T02:37:29.278Z,65.27
2019-05-01T02:40:01.652Z,78.07
2019-05-01T02:42:42.841Z,73.37
2019-05-01T02:45:15.290Z,71.55
2019-05-01T02:47:48.546Z,70.03
2019-05-01T02:50:18.616Z,63.00
2019-05-01T02:52:47.494Z,74.30
2019-05-01T02:55:21.135Z,81.50
2019-05-01T02:57:56.712Z,68.50
2019-05-01T03:00:26.606Z,66.10
2019-05-01T03:03:02.659Z,75.30
2019-05-01T03:05:31.829Z,64.33
2019-05-01T03:08:06.580Z,73.70
2019-05-01T03:10:39.384Z,74.97
2019-05-01T03:13:08.198Z,67.77
2019-05-01T03:15:37.425Z,71.07
2019-05-01T03:18:17.132Z,73.67
2019-05-01T03:20:47.556Z,72.63
2019-05-01T03:23:20.091Z,75.87
2019-05-01T03:25:49.236Z,64.97
2019-05-01T03:28:18.730Z,57.43
2019-05-01T03:30:50.505Z,59.77
2019-05-01T03:35:47.168Z,68.10
2019-05-01T03:38:16.940Z,60.43
2019-05-01T03:40:47.332Z,66.97
2019-05-01T03:43:18.391Z,74.33
2019-05-01T03:45:50.567Z,67.50
2019-05-01T03:48:21.353Z,73.07
2019-05-01T03:50:50.177Z,68.77
2019-05-01T03:53:19.377Z,74.80
2019-05-01T03:55:48.197Z,71.10
2019-05-01T03:58:17.217Z,84.10
2019-05-01T04:00:58.389Z,72.13
2019-05-01T04:03:36.507Z,84.10
2019-05-01T04:06:05.406Z,88.67
2019-05-01T04:08:34.117Z,84.33
2019-05-01T04:11:02.791Z,67.17
2019-05-01T04:13:37.448Z,70.50
2019-05-01T04:16:06.601Z,75.57
2019-05-01T04:18:35.732Z,63.30
2019-05-01T04:21:04.744Z,65.63
2019-05-01T04:23:33.725Z,72.30
2019-05-01T04:26:04.746Z,63.20
2019-05-01T04:28:50.355Z,70.78
2019-05-01T04:31:23.537Z,65.43
2019-05-01T04:34:03.680Z,58.17
2019-05-01T04:36:36.995Z,67.70
2019-05-01T04:39:07.529Z,65.17
2019-05-01T04:41:37.056Z,62.80
2019-05-01T04:44:06.728Z,61.30
2019-05-01T04:46:36.254Z,61.10
2019-05-01T04:49:08.168Z,65.63
2019-05-01T04:51:38.022Z,64.17
2019-05-01T04:54:06.762Z,59.10
2019-05-01T04:56:35.588Z,59.13
2019-05-01T04:59:04.840Z,54.43
2019-05-01T05:01:52.824Z,49.17
2019-05-01T05:04:25.294Z,47.63
2019-05-01T05:06:54.671Z,42.87
2019-05-01T05:09:41.034Z,44.67
2019-05-01T05:12:11.598Z,46.37
2019-05-01T05:14:45.239Z,43.93
2019-05-01T05:17:18.437Z,46.90
2019-05-01T05:19:49.975Z,39.93
2019-05-01T05:22:23.530Z,43.28
2019-05-01T05:24:54.634Z,42.73
2019-05-01T05:27:26.740Z,44.53
2019-05-01T05:29:57.430Z,39.58
2019-05-01T05:32:29.903Z,40.00
2019-05-01T05:35:11.816Z,36.73
2019-05-01T05:37:56.644Z,39.03
2019-05-01T05:40:30.718Z,40.08
2019-05-01T05:43:08.643Z,36.55
2019-05-01T05:45:43.889Z,33.53
2019-05-01T05:48:18.679Z,37.10
2019-05-01T05:51:12.303Z,39.13
2019-05-01T05:53:45.864Z,37.50
2019-05-01T05:56:19.015Z,35.73
2019-05-01T05:59:01.867Z,36.48
2019-05-01T06:01:52.143Z,36.90
2019-05-01T06:04:28.612Z,37.78
2019-05-01T06:07:03.968Z,36.65
2019-05-01T06:09:37.341Z,39.10
2019-05-01T06:12:18.272Z,41.33
2019-05-01T06:14:54.409Z,39.00
2019-05-01T06:17:41.222Z,44.13
2019-05-01T06:20:20.730Z,41.68
2019-05-01T06:23:04.667Z,42.08
2019-05-01T06:25:37.873Z,41.58
2019-05-01T06:28:06.655Z,38.33
2019-05-01T06:30:36.026Z,40.38
2019-05-01T06:33:11.310Z,37.48
2019-05-01T06:35:40.792Z,38.80
2019-05-01T06:38:17.596Z,40.17
2019-05-01T06:40:48.506Z,37.08
2019-05-01T06:43:30.275Z,37.85
2019-05-01T06:46:13.120Z,35.30
2019-05-01T06:48:52.997Z,38.17
2019-05-01T06:51:34.302Z,35.52
2019-05-01T06:54:11.195Z,37.80
2019-05-01T06:56:41.020Z,38.23
2019-05-01T06:59:13.296Z,37.60
2019-05-01T07:01:45.291Z,37.93
2019-05-01T07:04:17.795Z,38.53
2019-05-01T07:06:49.921Z,38.95
2019-05-01T07:09:27.780Z,34.75
2019-05-01T07:11:52.685Z,36.10
2019-05-01T07:14:21.619Z,33.78
2019-05-01T07:16:50.872Z,38.15
2019-05-01T07:19:23.481Z,38.95
2019-05-01T07:21:55.382Z,35.83
2019-05-01T07:24:27.992Z,35.88
2019-05-01T07:27:04.103Z,38.63
2019-05-01T07:29:35.154Z,35.05
2019-05-01T07:32:06.320Z,37.20
2019-05-01T07:34:42.097Z,36.47
2019-05-01T07:37:13.464Z,36.13
2019-05-01T07:39:53.172Z,35.23
2019-05-01T07:42:28.829Z,36.55
2019-05-01T07:45:12.445Z,36.90
2019-05-01T07:48:01.109Z,36.50
2019-05-01T07:50:33.728Z,36.00
2019-05-01T07:53:03.539Z,34.15
2019-05-01T07:55:38.444Z,37.40
2019-05-01T07:58:16.062Z,36.63
2019-05-01T08:00:55.200Z,39.65
2019-05-01T08:03:23.993Z,39.83
2019-05-01T08:05:52.679Z,43.05
2019-05-01T08:08:21.378Z,45.75
2019-05-01T08:10:54.831Z,49.00
2019-05-01T08:13:23.551Z,52.15
2019-05-01T08:15:55.676Z,56.00
2019-05-01T08:18:31.901Z,52.03
2019-05-01T08:21:10.190Z,56.60
2019-05-01T08:23:42.682Z,52.08
2019-05-01T08:26:15.619Z,51.37
2019-05-01T08:29:06.950Z,50.92
2019-05-01T08:34:48.697Z,56.70
2019-05-01T08:37:09.233Z,58.95
2019-05-01T08:39:52.260Z,57.25
2019-05-01T08:42:29.611Z,58.80
2019-05-01T08:45:10.273Z,58.02
2019-05-01T08:48:01.766Z,57.03
2019-05-01T08:50:33.389Z,57.48
2019-05-01T08:53:01.997Z,56.88
2019-05-01T08:55:31.929Z,56.75
2019-05-01T08:58:03.741Z,56.73
2019-05-01T09:00:41.195Z,57.43
2019-05-01T09:03:20.615Z,58.17
2019-05-01T09:05:52.348Z,56.47
2019-05-01T09:08:32.091Z,59.03
2019-05-01T09:11:17.890Z,57.62
2019-05-01T09:13:46.579Z,59.55
2019-05-01T09:16:23.438Z,57.98
2019-05-01T09:18:56.093Z,61.98
2019-05-01T09:21:25.420Z,63.05
2019-05-01T09:24:03.552Z,63.90
2019-05-01T09:26:50.227Z,61.00
2019-05-01T09:29:25.180Z,65.10
2019-05-01T09:32:05.116Z,60.40
2019-05-01T09:34:38.034Z,63.58
2019-05-01T09:37:12.652Z,59.95
2019-05-01T09:39:47.166Z,60.90
2019-05-01T09:42:23.814Z,61.48
2019-05-01T09:44:57.642Z,56.80
2019-05-01T09:47:35.535Z,60.35
2019-05-01T09:50:07.294Z,59.65
2019-05-01T09:52:48.959Z,58.55
2019-05-01T09:55:24.910Z,62.08
2019-05-01T09:57:54.100Z,62.38
2019-05-01T10:00:33.039Z,60.40
2019-05-01T10:03:04.855Z,64.58
2019-05-01T10:08:52.237Z,70.28
2019-05-01T10:11:22.200Z,70.85
2019-05-01T10:13:53.642Z,70.52
2019-05-01T10:16:33.567Z,64.60
2019-05-01T10:19:11.530Z,68.25
2019-05-01T10:21:43.700Z,65.17
2019-05-01T10:24:18.633Z,64.37
2019-05-01T10:26:49.185Z,65.60
2019-05-01T10:29:25.867Z,66.62
2019-05-01T10:32:08.167Z,65.45
2019-05-01T10:37:33.622Z,59.45
2019-05-01T10:40:03.548Z,62.78
2019-05-01T10:42:45.059Z,58.50
2019-05-01T10:45:32.917Z,60.63
2019-05-01T10:48:07.935Z,59.35
2019-05-01T10:50:40.186Z,59.75
2019-05-01T10:53:15.730Z,61.08
2019-05-01T10:55:53.280Z,57.00
2019-05-01T10:58:24.192Z,58.58
2019-05-01T11:01:31.223Z,56.63
2019-05-01T11:04:07.435Z,58.90
2019-05-01T11:06:37.954Z,57.25
2019-05-01T11:09:16.910Z,58.90
2019-05-01T11:11:51.698Z,59.73
2019-05-01T11:14:21.294Z,57.78
2019-05-01T11:17:01.057Z,57.35
2019-05-01T11:19:32.815Z,55.65
2019-05-01T11:22:01.440Z,59.35
2019-05-01T11:24:33.813Z,60.48
2019-05-01T11:27:08.519Z,58.28
2019-05-01T11:29:39.438Z,58.15
2019-05-01T11:32:21.470Z,61.98
2019-05-01T11:35:07.750Z,61.05
2019-05-01T11:38:03.765Z,61.55
2019-05-01T11:40:34.617Z,61.10
2019-05-01T11:43:05.497Z,60.80
2019-05-01T11:45:37.486Z,62.40
2019-05-01T11:48:19.674Z,60.05
2019-05-01T11:50:48.265Z,64.70
2019-05-01T11:53:24.715Z,63.55
2019-05-01T11:55:53.315Z,64.70
2019-05-01T11:58:37.596Z,60.73
2019-05-01T12:01:08.215Z,68.20
2019-05-01T12:03:39.528Z,65.28
2019-05-01T12:06:22.400Z,64.07
2019-05-01T12:08:47.313Z,63.15
2019-05-01T12:11:25.586Z,62.03
2019-05-01T12:13:57.941Z,65.28
2019-05-01T12:16:54.620Z,65.00
2019-05-01T12:19:34.232Z,65.30
2019-05-01T12:22:05.900Z,63.73
2019-05-01T12:24:55.131Z,65.92
2019-05-01T12:27:28.768Z,63.08
2019-05-01T12:30:07.934Z,66.55
2019-05-01T12:32:50.576Z,67.10
2019-05-01T12:35:21.299Z,68.67
2019-05-01T12:37:59.953Z,74.22
2019-05-01T12:40:34.945Z,71.62
2019-05-01T12:43:07.182Z,71.20
2019-05-01T12:45:36.059Z,70.95
2019-05-01T12:48:05.850Z,76.70
2019-05-01T12:50:50.165Z,72.60
2019-05-01T12:56:15.902Z,75.03
2019-05-01T12:58:57.817Z,78.90
2019-05-01T13:01:26.639Z,79.35
2019-05-01T13:03:55.414Z,83.03
2019-05-01T13:06:24.015Z,81.20
2019-05-01T13:09:07.739Z,87.50
2019-05-01T13:11:47.204Z,78.72
2019-05-01T13:14:15.983Z,75.40
2019-05-01T13:17:12.576Z,79.75
2019-05-01T13:19:59.299Z,84.30
2019-05-01T13:22:30.523Z,83.07
2019-05-01T13:25:10.314Z,80.57
2019-05-01T13:27:51.807Z,87.82
2019-05-01T13:30:40.502Z,81.75
2019-05-01T13:33:10.051Z,84.97
2019-05-01T13:35:39.419Z,83.90
2019-05-01T13:38:09.178Z,84.32
2019-05-01T13:40:37.885Z,84.77
2019-05-01T13:43:06.712Z,83.17
2019-05-01T13:45:35.446Z,87.80
2019-05-01T13:48:04.260Z,83.58
2019-05-01T13:50:32.857Z,88.00
2019-05-01T13:53:01.972Z,84.97
2019-05-01T13:55:31.236Z,86.87
2019-05-01T13:58:03.852Z,85.05
2019-05-01T14:00:32.876Z,84.85
2019-05-01T14:03:01.492Z,83.90
2019-05-01T14:05:30.214Z,84.10
2019-05-01T14:08:01.050Z,80.38
2019-05-01T14:10:30.360Z,78.72
2019-05-01T14:12:58.955Z,79.12
2019-05-01T14:15:31.325Z,83.42
2019-05-01T14:18:00.375Z,81.00
2019-05-01T14:20:34.736Z,77.72
2019-05-01T14:23:13.992Z,75.17
2019-05-01T14:26:00.750Z,77.65
2019-05-01T14:28:29.356Z,79.03
2019-05-01T14:30:58.201Z,79.05
2019-05-01T14:33:26.786Z,77.53
2019-05-01T14:35:55.406Z,80.32
2019-05-01T14:38:24.213Z,77.05
2019-05-01T14:40:53.242Z,80.20
2019-05-01T14:43:22.110Z,77.32
2019-05-01T14:45:50.800Z,82.55
2019-05-01T14:48:19.648Z,85.10
2019-05-01T14:50:48.443Z,81.12
2019-05-01T14:53:17.031Z,83.72
2019-05-01T14:55:45.752Z,82.97
2019-05-01T14:58:14.362Z,81.72
2019-05-01T15:00:43.014Z,85.15
2019-05-01T15:03:13.002Z,86.12
2019-05-01T15:05:41.686Z,86.78
2019-05-01T15:08:10.371Z,82.62
2019-05-01T15:10:39.286Z,83.80
2019-05-01T15:13:12.399Z,85.40
2019-05-01T15:16:00.759Z,81.22
2019-05-01T15:18:47.179Z,88.47
2019-05-01T15:21:16.417Z,86.28
2019-05-01T15:23:53.376Z,86.78
2019-05-01T15:26:15.323Z,91.17
2019-05-01T15:28:44.274Z,81.85
2019-05-01T15:31:13.160Z,82.88
2019-05-01T15:33:47.906Z,84.60
2019-05-01T15:36:17.822Z,87.33
2019-05-01T15:38:53.166Z,82.30
2019-05-01T15:41:27.306Z,86.02
2019-05-01T15:44:03.758Z,80.40
2019-05-01T15:46:37.405Z,84.42
2019-05-01T15:49:06.305Z,83.58
2019-05-01T15:51:35.306Z,80.77
2019-05-01T15:54:34.304Z,80.15
2019-05-01T15:57:14.935Z,81.40
2019-05-01T15:59:43.554Z,77.27
2019-05-01T16:02:24.420Z,81.12
2019-05-01T16:04:54.078Z,80.17
2019-05-01T16:07:27.945Z,82.22
2019-05-01T16:09:59.702Z,75.45
2019-05-01T16:12:29.971Z,75.05
2019-05-01T16:14:58.602Z,76.05
2019-05-01T16:17:28.834Z,77.22
2019-05-01T16:20:35.255Z,77.55
2019-05-01T16:23:04.036Z,72.67
2019-05-01T16:25:32.839Z,76.05
2019-05-01T16:28:06.011Z,72.95
2019-05-01T16:30:40.866Z,74.12
2019-05-01T16:33:09.593Z,73.52
2019-05-01T16:35:44.175Z,72.10
2019-05-01T16:38:23.202Z,71.20
2019-05-01T16:40:54.904Z,69.97
2019-05-01T16:43:23.746Z,71.67
2019-05-01T16:45:59.783Z,68.45
2019-05-01T16:48:34.297Z,66.15
2019-05-01T16:51:04.931Z,61.85
2019-05-01T16:53:33.684Z,64.95
2019-05-01T16:56:05.335Z,62.60
2019-05-01T16:58:35.410Z,60.10
2019-05-01T17:01:07.755Z,61.00
2019-05-01T17:03:48.972Z,64.87
2019-05-01T17:06:20.941Z,65.12
2019-05-01T17:08:54.740Z,60.88
2019-05-01T17:11:28.447Z,56.73
2019-05-01T17:14:02.830Z,60.17
2019-05-01T17:16:31.902Z,59.93
2019-05-01T17:19:04.168Z,56.88
2019-05-01T17:21:32.952Z,58.08
2019-05-01T17:24:08.486Z,57.70
2019-05-01T17:26:47.870Z,57.43
2019-05-01T17:29:23.416Z,54.03
2019-05-01T17:31:58.031Z,60.17
2019-05-01T17:34:42.055Z,57.85
2019-05-01T17:37:10.815Z,57.83
2019-05-01T17:39:39.503Z,56.30
2019-05-01T17:42:18.344Z,56.45
2019-05-01T17:44:47.179Z,58.68
2019-05-01T17:47:17.861Z,51.80
2019-05-01T17:49:47.198Z,57.43
2019-05-01T17:52:16.013Z,56.77
2019-05-01T17:54:47.287Z,57.25
2019-05-01T17:57:15.936Z,55.75
2019-05-01T17:59:48.993Z,52.50
2019-05-01T18:02:22.260Z,58.30
2019-05-01T18:05:15.683Z,56.45
2019-05-01T18:07:45.464Z,58.25
2019-05-01T18:10:29.505Z,56.23
2019-05-01T18:13:07.608Z,54.77
2019-05-01T18:15:43.818Z,55.30
2019-05-01T18:18:15.102Z,54.38
2019-05-01T18:20:43.225Z,53.90
2019-05-01T18:23:13.531Z,52.43
2019-05-01T18:25:48.187Z,56.40
2019-05-01T18:28:31.748Z,55.75
2019-05-01T18:31:00.619Z,56.50
2019-05-01T18:33:29.413Z,54.77
2019-05-01T18:36:02.655Z,55.15
2019-05-01T18:38:37.994Z,59.30
2019-05-01T18:41:19.993Z,59.65
2019-05-01T18:43:48.897Z,58.63
2019-05-01T18:46:17.775Z,58.38
2019-05-01T18:48:46.553Z,60.03
2019-05-01T18:51:16.408Z,59.35
2019-05-01T18:54:00.024Z,57.10
2019-05-01T18:56:41.030Z,59.55
2019-05-01T18:59:15.759Z,62.65
2019-05-01T19:01:48.505Z,71.72
2019-05-01T19:04:23.453Z,76.22
2019-05-01T19:06:56.150Z,68.17
2019-05-01T19:09:30.172Z,67.32
2019-05-01T19:11:56.161Z,69.50
2019-05-01T19:14:28.797Z,64.87
2019-05-01T19:17:04.996Z,64.77
2019-05-01T19:19:40.989Z,64.72
2019-05-01T19:22:34.766Z,64.37
2019-05-01T19:25:10.937Z,66.35
2019-05-01T19:27:45.906Z,73.65
2019-05-01T19:30:16.853Z,72.85
2019-05-01T19:32:55.579Z,72.05
2019-05-01T19:35:34.347Z,70.03
2019-05-01T19:38:03.234Z,66.15
2019-05-01T19:40:32.815Z,65.03
2019-05-01T19:43:14.435Z,69.05
2019-05-01T19:45:45.817Z,66.05
2019-05-01T19:48:20.491Z,73.78
2019-05-01T19:50:55.227Z,67.05
2019-05-01T19:53:29.063Z,68.40
2019-05-01T19:56:06.122Z,70.28
2019-05-01T19:58:37.594Z,72.75
2019-05-01T20:01:18.702Z,74.32
2019-05-01T20:03:47.483Z,103.70
2019-05-01T20:06:16.246Z,92.35
2019-05-01T20:08:44.883Z,102.60
2019-05-01T20:11:13.647Z,86.78
2019-05-01T20:13:42.353Z,82.80
2019-05-01T20:16:11.470Z,77.47
2019-05-01T20:18:40.227Z,76.72
2019-05-01T20:21:11.440Z,82.25
2019-05-01T20:23:40.952Z,83.92
2019-05-01T20:26:11.536Z,79.15
2019-05-01T20:28:40.114Z,78.95
2019-05-01T20:31:08.699Z,81.47
2019-05-01T20:33:42.354Z,81.63
2019-05-01T20:36:08.557Z,82.67
2019-05-01T20:38:37.200Z,78.65
2019-05-01T20:41:10.166Z,83.67
2019-05-01T20:43:38.153Z,84.85
2019-05-01T20:46:07.046Z,80.60
2019-05-01T20:48:35.928Z,82.75
2019-05-01T20:51:04.747Z,84.50
2019-05-01T20:53:33.431Z,84.58
2019-05-01T20:56:06.627Z,83.07
2019-05-01T20:58:35.248Z,83.80
2019-05-01T21:01:04.303Z,86.65
2019-05-01T21:03:32.993Z,88.78
2019-05-01T21:06:07.929Z,92.57
2019-05-01T21:08:53.223Z,92.88
2019-05-01T21:11:23.569Z,90.25
2019-05-01T21:13:56.700Z,83.82
2019-05-01T21:16:22.504Z,87.82
2019-05-01T21:18:51.183Z,92.17
2019-05-01T21:21:24.071Z,93.40
2019-05-01T21:23:56.428Z,87.40
2019-05-01T21:26:23.469Z,91.12
2019-05-01T21:28:53.986Z,93.27
2019-05-01T21:31:24.029Z,94.20
2019-05-01T21:33:53.563Z,97.02
2019-05-01T21:36:22.398Z,102.22
2019-05-01T21:38:50.982Z,97.95
2019-05-01T21:41:19.618Z,112.80
2019-05-01T21:43:48.321Z,113.20
2019-05-01T21:46:16.878Z,114.22
2019-05-01T21:48:45.659Z,116.87
2019-05-01T21:51:14.404Z,107.43
2019-05-01T21:53:46.350Z,103.32
2019-05-01T21:56:13.433Z,99.65
2019-05-01T21:58:45.155Z,99.95
2019-05-01T22:01:13.639Z,97.00
2019-05-01T22:03:42.266Z,104.70
2019-05-01T22:06:15.073Z,106.40
2019-05-01T22:08:41.271Z,108.10
2019-05-01T22:11:09.923Z,109.20
2019-05-01T22:13:38.541Z,112.08
2019-05-01T22:16:08.938Z,106.83
2019-05-01T22:18:39.186Z,113.10
2019-05-01T22:21:18.215Z,107.90
2019-05-01T22:24:04.624Z,108.90
2019-05-01T22:26:34.832Z,112.07
2019-05-01T22:29:14.248Z,108.33
2019-05-01T22:31:52.799Z,105.87
2019-05-01T22:34:40.397Z,111.27
2019-05-01T22:37:09.444Z,109.63
2019-05-01T22:39:39.715Z,111.07
2019-05-01T22:42:08.500Z,110.43
2019-05-01T22:44:37.172Z,105.90
2019-05-01T22:47:10.153Z,118.47
2019-05-01T22:49:36.508Z,110.07
2019-05-01T22:52:05.264Z,108.07
2019-05-01T22:54:33.929Z,111.13
2019-05-01T22:57:02.527Z,119.67
2019-05-01T22:59:31.119Z,128.90
2019-05-01T23:02:07.147Z,111.17
2019-05-01T23:04:35.790Z,123.60
2019-05-01T23:07:04.502Z,129.30
2019-05-01T23:09:33.495Z,120.23
2019-05-01T23:12:02.134Z,127.87
2019-05-01T23:14:31.122Z,114.23
2019-05-01T23:17:05.220Z,111.00
2019-05-01T23:19:33.927Z,112.43
2019-05-01T23:22:02.606Z,110.20
2019-05-01T23:24:31.225Z,110.50
2019-05-01T23:27:00.079Z,112.97
2019-05-01T23:29:34.497Z,111.37
2019-05-01T23:32:03.724Z,111.80
2019-05-01T23:34:32.315Z,110.60
2019-05-01T23:37:00.934Z,104.33
2019-05-01T23:39:29.653Z,104.90
2019-05-01T23:41:58.343Z,115.43
2019-05-01T23:44:42.958Z,110.93
2019-05-01T23:47:08.644Z,134.82
2019-05-01T23:49:37.246Z,133.63
2019-05-01T23:52:05.964Z,121.50
2019-05-01T23:54:34.620Z,129.07
2019-05-01T23:57:03.219Z,129.23
2019-05-01T23:59:31.910Z,128.07
